createdAt,value
2018-11-06T00:00:31.281Z,44.40
2018-11-06T00:01:31.320Z,36.00
2018-11-06T00:02:31.361Z,45.90
2018-11-06T00:03:31.397Z,40.40
2018-11-06T00:04:31.432Z,45.20
2018-11-06T00:05:31.471Z,51.00
2018-11-06T00:06:31.510Z,53.00
2018-11-06T00:07:31.553Z,47.50
2018-11-06T00:08:31.589Z,56.10
2018-11-06T00:09:31.633Z,45.70
2018-11-06T00:10:31.676Z,52.80
2018-11-06T00:11:31.705Z,43.80
2018-11-06T00:12:31.738Z,54.60
2018-11-06T00:13:31.907Z,39.60
2018-11-06T00:14:31.823Z,60.70
2018-11-06T00:15:31.856Z,44.20
2018-11-06T00:16:31.899Z,42.40
2018-11-06T00:17:31.977Z,42.20
2018-11-06T00:18:31.975Z,43.30
2018-11-06T00:19:32.058Z,47.40
2018-11-06T00:20:32.336Z,40.40
2018-11-06T00:21:32.081Z,32.70
2018-11-06T00:22:32.194Z,38.20
2018-11-06T00:23:32.418Z,42.40
2018-11-06T00:24:32.196Z,54.30
2018-11-06T00:25:32.238Z,52.60
2018-11-06T00:26:32.329Z,38.20
2018-11-06T00:27:32.387Z,40.40
2018-11-06T00:28:32.369Z,45.70
2018-11-06T00:29:32.385Z,45.70
2018-11-06T00:30:32.456Z,48.30
2018-11-06T00:31:32.463Z,49.50
2018-11-06T00:32:32.511Z,51.50
2018-11-06T00:33:32.540Z,52.10
2018-11-06T00:34:32.575Z,42.60
2018-11-06T00:35:32.668Z,42.00
2018-11-06T00:36:32.651Z,51.90
2018-11-06T00:37:32.694Z,41.00
2018-11-06T00:38:32.727Z,39.70
2018-11-06T00:39:32.764Z,43.00
2018-11-06T00:40:32.804Z,54.20
2018-11-06T00:41:32.843Z,43.70
2018-11-06T00:42:32.880Z,39.50
2018-11-06T00:43:32.918Z,39.90
2018-11-06T00:44:32.956Z,45.70
2018-11-06T00:45:33.014Z,38.90
2018-11-06T00:46:33.043Z,40.10
2018-11-06T00:47:33.073Z,34.20
2018-11-06T00:48:33.106Z,32.00
2018-11-06T00:49:33.144Z,37.00
2018-11-06T00:50:33.183Z,44.20
2018-11-06T00:51:33.236Z,34.50
2018-11-06T00:52:33.360Z,38.90
2018-11-06T00:53:33.301Z,36.80
2018-11-06T00:54:33.341Z,32.20
2018-11-06T00:55:33.392Z,31.30
2018-11-06T00:56:33.412Z,35.00
2018-11-06T00:57:33.456Z,32.00
2018-11-06T00:58:33.487Z,37.00
2018-11-06T00:59:33.525Z,36.40
2018-11-06T01:00:33.562Z,30.70
2018-11-06T01:01:33.599Z,34.20
2018-11-06T01:02:33.637Z,33.40
2018-11-06T01:03:33.674Z,37.50
2018-11-06T01:04:33.716Z,34.40
2018-11-06T01:05:33.751Z,35.30
2018-11-06T01:06:33.792Z,33.70
2018-11-06T01:07:33.829Z,37.70
2018-11-06T01:08:33.868Z,38.40
2018-11-06T01:09:33.904Z,30.70
2018-11-06T01:10:33.943Z,29.80
2018-11-06T01:11:33.989Z,35.20
2018-11-06T01:12:34.939Z,36.80
2018-11-06T01:13:34.054Z,39.90
2018-11-06T01:14:34.094Z,36.90
2018-11-06T01:15:34.131Z,39.90
2018-11-06T01:16:34.168Z,40.10
2018-11-06T01:17:34.206Z,37.20
2018-11-06T01:18:34.356Z,33.50
2018-11-06T01:19:34.283Z,38.10
2018-11-06T01:20:34.325Z,47.50
2018-11-06T01:21:34.364Z,41.90
2018-11-06T01:22:34.397Z,33.90
2018-11-06T01:23:34.514Z,38.20
2018-11-06T01:24:34.474Z,35.30
2018-11-06T01:25:34.513Z,37.20
2018-11-06T01:26:34.562Z,40.40
2018-11-06T01:27:34.591Z,32.80
2018-11-06T01:28:34.763Z,35.70
2018-11-06T01:29:34.663Z,40.50
2018-11-06T01:30:34.706Z,36.10
2018-11-06T01:31:34.739Z,37.50
2018-11-06T01:32:34.778Z,39.90
2018-11-06T01:33:34.819Z,41.90
2018-11-06T01:34:34.882Z,37.80
2018-11-06T01:35:34.891Z,36.90
2018-11-06T01:36:34.928Z,34.20
2018-11-06T01:37:34.965Z,36.70
2018-11-06T01:38:35.003Z,36.50
2018-11-06T01:39:35.043Z,35.40
2018-11-06T01:40:35.079Z,28.40
2018-11-06T01:41:35.117Z,29.60
2018-11-06T01:42:35.463Z,35.00
2018-11-06T01:43:35.195Z,38.90
2018-11-06T01:44:35.231Z,40.00
2018-11-06T01:45:35.269Z,35.90
2018-11-06T01:46:35.317Z,33.40
2018-11-06T01:47:35.346Z,35.10
2018-11-06T01:48:35.383Z,37.00
2018-11-06T01:49:35.420Z,39.80
2018-11-06T01:50:35.459Z,41.40
2018-11-06T01:51:35.497Z,40.60
2018-11-06T01:52:35.540Z,40.90
2018-11-06T01:53:35.578Z,40.40
2018-11-06T01:54:35.612Z,43.60
2018-11-06T01:55:35.656Z,37.70
2018-11-06T01:56:35.965Z,38.20
2018-11-06T01:57:35.734Z,37.90
2018-11-06T01:58:35.764Z,36.60
2018-11-06T01:59:35.867Z,40.80
2018-11-06T02:00:35.838Z,43.40
2018-11-06T02:01:35.883Z,42.10
2018-11-06T02:02:35.914Z,30.10
2018-11-06T02:03:35.951Z,36.30
2018-11-06T02:04:35.988Z,32.40
2018-11-06T02:05:36.025Z,37.00
2018-11-06T02:06:36.065Z,36.20
2018-11-06T02:07:36.103Z,37.50
2018-11-06T02:08:36.252Z,31.90
2018-11-06T02:09:36.176Z,31.80
2018-11-06T02:10:36.214Z,28.40
2018-11-06T02:11:36.283Z,30.90
2018-11-06T02:12:36.300Z,30.80
2018-11-06T02:13:36.330Z,34.40
2018-11-06T02:14:36.372Z,32.50
2018-11-06T02:15:36.553Z,28.10
2018-11-06T02:16:36.442Z,33.60
2018-11-06T02:17:36.480Z,31.10
2018-11-06T02:18:36.516Z,26.70
2018-11-06T02:19:36.555Z,24.20
2018-11-06T02:20:36.590Z,26.20
2018-11-06T02:21:36.632Z,24.00
2018-11-06T02:22:36.678Z,24.40
2018-11-06T02:23:36.706Z,24.70
2018-11-06T02:24:36.755Z,26.10
2018-11-06T02:25:37.047Z,23.90
2018-11-06T02:26:36.846Z,25.60
2018-11-06T02:27:36.867Z,28.80
2018-11-06T02:28:36.896Z,25.30
2018-11-06T02:29:36.933Z,30.30
2018-11-06T02:30:36.970Z,24.80
2018-11-06T02:31:37.011Z,30.70
2018-11-06T02:32:37.113Z,28.00
2018-11-06T02:33:37.084Z,32.60
2018-11-06T02:34:37.122Z,26.30
2018-11-06T02:35:37.162Z,28.80
2018-11-06T02:36:37.197Z,27.10
2018-11-06T02:37:37.235Z,25.40
2018-11-06T02:38:37.273Z,24.80
2018-11-06T02:39:37.313Z,26.60
2018-11-06T02:40:37.348Z,24.30
2018-11-06T02:41:37.538Z,39.40
2018-11-06T02:42:37.425Z,30.80
2018-11-06T02:43:37.476Z,31.50
2018-11-06T02:44:37.506Z,34.90
2018-11-06T02:45:37.538Z,34.10
2018-11-06T02:46:37.575Z,28.80
2018-11-06T02:47:37.611Z,35.00
2018-11-06T02:48:37.653Z,21.40
2018-11-06T02:49:37.695Z,22.10
2018-11-06T02:50:37.728Z,29.80
2018-11-06T02:51:37.765Z,30.20
2018-11-06T02:52:37.808Z,32.60
2018-11-06T02:53:37.840Z,32.20
2018-11-06T02:54:37.877Z,24.80
2018-11-06T02:55:37.928Z,22.80
2018-11-06T02:56:37.953Z,23.80
2018-11-06T02:57:37.990Z,24.90
2018-11-06T02:58:38.032Z,34.10
2018-11-06T02:59:38.067Z,29.00
2018-11-06T03:00:38.106Z,33.20
2018-11-06T03:01:38.146Z,33.50
2018-11-06T03:02:38.180Z,34.20
2018-11-06T03:03:38.220Z,29.30
2018-11-06T03:04:38.256Z,34.20
2018-11-06T03:05:38.436Z,30.00
2018-11-06T03:06:38.342Z,29.30
2018-11-06T03:07:38.572Z,31.60
2018-11-06T03:08:38.407Z,40.40
2018-11-06T03:09:38.451Z,36.40
2018-11-06T03:10:38.486Z,32.30
2018-11-06T03:11:38.520Z,36.50
2018-11-06T03:12:38.555Z,40.10
2018-11-06T03:13:38.593Z,34.70
2018-11-06T03:14:38.631Z,30.00
2018-11-06T03:15:38.670Z,36.90
2018-11-06T03:16:38.755Z,23.70
2018-11-06T03:17:38.745Z,32.40
2018-11-06T03:18:38.781Z,28.80
2018-11-06T03:19:38.822Z,36.30
2018-11-06T03:20:38.865Z,37.50
2018-11-06T03:21:38.901Z,28.40
2018-11-06T03:22:38.933Z,33.40
2018-11-06T03:23:38.975Z,24.60
2018-11-06T03:24:39.006Z,24.10
2018-11-06T03:25:39.045Z,25.80
2018-11-06T03:26:39.081Z,26.80
2018-11-06T03:27:39.121Z,37.30
2018-11-06T03:28:39.163Z,35.50
2018-11-06T03:29:39.198Z,30.90
2018-11-06T03:30:39.241Z,36.80
2018-11-06T03:31:39.295Z,25.40
2018-11-06T03:32:39.315Z,26.50
2018-11-06T03:33:39.347Z,27.30
2018-11-06T03:34:39.384Z,29.80
2018-11-06T03:35:39.423Z,27.90
2018-11-06T03:36:39.458Z,26.00
2018-11-06T03:37:39.502Z,24.40
2018-11-06T03:38:39.537Z,26.80
2018-11-06T03:39:39.587Z,27.50
2018-11-06T03:40:39.610Z,27.40
2018-11-06T03:41:39.646Z,26.90
2018-11-06T03:42:39.685Z,24.50
2018-11-06T03:43:39.721Z,27.50
2018-11-06T03:44:39.761Z,25.70
2018-11-06T03:45:39.797Z,28.60
2018-11-06T03:46:39.844Z,29.70
2018-11-06T03:47:39.872Z,34.20
2018-11-06T03:48:39.909Z,38.20
2018-11-06T03:49:39.946Z,26.80
2018-11-06T03:50:39.986Z,24.60
2018-11-06T03:51:40.023Z,38.30
2018-11-06T03:52:40.062Z,26.90
2018-11-06T03:53:40.101Z,26.50
2018-11-06T03:54:40.136Z,28.60
2018-11-06T03:55:40.174Z,29.80
2018-11-06T03:56:40.211Z,28.70
2018-11-06T03:57:40.261Z,30.80
2018-11-06T03:58:40.293Z,32.50
2018-11-06T03:59:40.325Z,27.00
2018-11-06T04:00:40.362Z,25.90
2018-11-06T04:01:40.400Z,26.10
2018-11-06T04:02:40.435Z,25.00
2018-11-06T04:03:40.475Z,30.20
2018-11-06T04:04:40.513Z,34.70
2018-11-06T04:05:40.548Z,32.30
2018-11-06T04:06:40.592Z,32.30
2018-11-06T04:07:40.623Z,33.80
2018-11-06T04:08:40.660Z,36.20
2018-11-06T04:09:40.699Z,26.40
2018-11-06T04:10:40.738Z,29.80
2018-11-06T04:11:40.774Z,30.50
2018-11-06T04:12:40.811Z,29.50
2018-11-06T04:13:40.848Z,28.00
2018-11-06T04:14:40.893Z,28.90
2018-11-06T04:15:40.923Z,26.70
2018-11-06T04:16:40.959Z,26.60
2018-11-06T04:17:40.999Z,35.10
2018-11-06T04:18:41.036Z,32.50
2018-11-06T04:19:41.074Z,33.40
2018-11-06T04:20:41.114Z,28.80
2018-11-06T04:21:41.148Z,27.20
2018-11-06T04:22:41.189Z,30.70
2018-11-06T04:23:41.228Z,32.70
2018-11-06T04:24:41.262Z,30.90
2018-11-06T04:25:41.303Z,40.00
2018-11-06T04:26:41.335Z,30.10
2018-11-06T04:27:41.373Z,31.00
2018-11-06T04:28:41.408Z,31.70
2018-11-06T04:29:41.446Z,27.20
2018-11-06T04:30:41.540Z,32.10
2018-11-06T04:31:41.790Z,28.10
2018-11-06T04:32:41.571Z,25.80
2018-11-06T04:33:41.599Z,32.30
2018-11-06T04:34:41.636Z,27.80
2018-11-06T04:35:41.672Z,29.40
2018-11-06T04:36:41.808Z,26.10
2018-11-06T04:37:41.749Z,22.70
2018-11-06T04:38:41.784Z,27.70
2018-11-06T04:39:41.822Z,27.60
2018-11-06T04:40:41.871Z,27.00
2018-11-06T04:41:41.898Z,25.60
2018-11-06T04:42:41.934Z,26.90
2018-11-06T04:43:41.972Z,28.40
2018-11-06T04:44:42.010Z,24.00
2018-11-06T04:45:42.053Z,27.30
2018-11-06T04:46:42.091Z,26.00
2018-11-06T04:47:42.119Z,26.20
2018-11-06T04:48:42.170Z,27.40
2018-11-06T04:49:42.199Z,26.80
2018-11-06T04:50:42.233Z,25.70
2018-11-06T04:51:42.270Z,26.90
2018-11-06T04:52:42.309Z,25.80
2018-11-06T04:53:42.344Z,29.00
2018-11-06T04:54:42.388Z,27.10
2018-11-06T04:55:42.418Z,23.50
2018-11-06T04:56:42.456Z,29.20
2018-11-06T04:57:42.495Z,27.50
2018-11-06T04:58:42.536Z,28.80
2018-11-06T04:59:42.570Z,38.80
2018-11-06T05:00:42.605Z,31.00
2018-11-06T05:01:42.641Z,35.10
2018-11-06T05:02:42.684Z,29.90
2018-11-06T05:03:42.718Z,27.60
2018-11-06T05:04:42.754Z,30.20
2018-11-06T05:05:42.796Z,27.70
2018-11-06T05:06:42.849Z,21.10
2018-11-06T05:07:42.873Z,21.10
2018-11-06T05:08:42.906Z,30.20
2018-11-06T05:09:42.941Z,30.20
2018-11-06T05:10:42.980Z,22.90
2018-11-06T05:11:43.018Z,25.70
2018-11-06T05:12:43.053Z,29.10
2018-11-06T05:13:43.098Z,25.20
2018-11-06T05:14:43.336Z,26.50
2018-11-06T05:15:43.167Z,27.30
2018-11-06T05:16:43.204Z,27.90
2018-11-06T05:17:43.246Z,31.20
2018-11-06T05:18:43.279Z,26.70
2018-11-06T05:19:43.318Z,22.70
2018-11-06T05:20:43.364Z,28.00
2018-11-06T05:21:43.388Z,26.40
2018-11-06T05:22:43.427Z,29.30
2018-11-06T05:23:43.468Z,28.40
2018-11-06T05:24:43.500Z,31.80
2018-11-06T05:25:43.540Z,28.50
2018-11-06T05:26:43.576Z,30.10
2018-11-06T05:27:43.650Z,28.70
2018-11-06T05:28:43.650Z,27.30
2018-11-06T05:29:43.687Z,31.70
2018-11-06T05:30:43.731Z,25.60
2018-11-06T05:31:43.764Z,23.80
2018-11-06T05:32:43.874Z,28.40
2018-11-06T05:33:43.838Z,28.90
2018-11-06T05:34:43.961Z,21.10
2018-11-06T05:35:44.080Z,28.90
2018-11-06T05:36:44.142Z,25.10
2018-11-06T05:37:43.989Z,28.70
2018-11-06T05:38:44.063Z,26.90
2018-11-06T05:39:44.069Z,34.50
2018-11-06T05:40:44.100Z,24.00
2018-11-06T05:41:44.137Z,27.70
2018-11-06T05:42:44.174Z,28.00
2018-11-06T05:43:44.211Z,25.30
2018-11-06T05:44:44.249Z,35.50
2018-11-06T05:45:44.462Z,51.30
2018-11-06T05:46:44.322Z,36.80
2018-11-06T05:47:44.362Z,47.90
2018-11-06T05:48:44.395Z,30.80
2018-11-06T05:49:44.434Z,37.50
2018-11-06T05:50:44.471Z,31.00
2018-11-06T05:51:44.509Z,43.40
2018-11-06T05:52:44.549Z,41.10
2018-11-06T05:53:44.589Z,33.60
2018-11-06T05:54:44.621Z,30.60
2018-11-06T05:55:44.658Z,35.00
2018-11-06T05:56:44.693Z,52.60
2018-11-06T05:57:44.737Z,70.20
2018-11-06T05:58:44.770Z,36.20
2018-11-06T05:59:44.806Z,33.70
2018-11-06T06:00:44.845Z,28.30
2018-11-06T06:01:44.882Z,29.60
2018-11-06T06:02:44.918Z,50.40
2018-11-06T06:03:44.956Z,28.10
2018-11-06T06:04:44.992Z,25.00
2018-11-06T06:05:45.031Z,30.40
2018-11-06T06:06:45.071Z,25.60
2018-11-06T06:07:45.108Z,28.60
2018-11-06T06:08:45.141Z,28.60
2018-11-06T06:09:45.180Z,30.50
2018-11-06T06:10:45.219Z,29.10
2018-11-06T06:11:45.256Z,24.60
2018-11-06T06:12:45.291Z,25.50
2018-11-06T06:13:45.330Z,23.00
2018-11-06T06:14:45.369Z,34.20
2018-11-06T06:15:45.404Z,30.80
2018-11-06T06:16:45.612Z,32.40
2018-11-06T06:17:45.485Z,28.40
2018-11-06T06:18:45.521Z,41.70
2018-11-06T06:19:45.553Z,37.50
2018-11-06T06:20:45.592Z,34.10
2018-11-06T06:21:45.678Z,36.40
2018-11-06T06:22:45.664Z,32.40
2018-11-06T06:23:45.701Z,32.30
2018-11-06T06:24:45.739Z,23.80
2018-11-06T06:25:45.776Z,27.00
2018-11-06T06:26:45.811Z,26.70
2018-11-06T06:27:45.850Z,21.90
2018-11-06T06:28:45.915Z,21.70
2018-11-06T06:29:45.924Z,24.60
2018-11-06T06:30:45.967Z,21.20
2018-11-06T06:31:45.999Z,25.40
2018-11-06T06:32:46.036Z,15.60
2018-11-06T06:33:46.079Z,21.40
2018-11-06T06:34:46.271Z,16.80
2018-11-06T06:35:46.160Z,28.60
2018-11-06T06:36:46.188Z,25.60
2018-11-06T06:37:46.253Z,20.60
2018-11-06T06:38:46.489Z,35.30
2018-11-06T06:39:46.299Z,21.50
2018-11-06T06:40:46.428Z,20.30
2018-11-06T06:41:46.376Z,19.00
2018-11-06T06:42:46.411Z,17.80
2018-11-06T06:43:46.451Z,21.80
2018-11-06T06:44:46.487Z,17.00
2018-11-06T06:45:46.519Z,15.90
2018-11-06T06:46:46.560Z,18.00
2018-11-06T06:47:46.597Z,18.20
2018-11-06T06:48:46.631Z,18.40
2018-11-06T06:49:46.682Z,16.30
2018-11-06T06:50:46.750Z,18.80
2018-11-06T06:51:46.976Z,16.10
2018-11-06T06:52:46.945Z,20.00
2018-11-06T06:53:46.865Z,14.90
2018-11-06T06:54:46.881Z,16.10
2018-11-06T06:55:46.902Z,17.50
2018-11-06T06:56:46.939Z,14.10
2018-11-06T06:57:46.967Z,14.70
2018-11-06T06:58:47.006Z,13.60
2018-11-06T06:59:47.042Z,20.00
2018-11-06T07:00:47.087Z,17.10
2018-11-06T07:01:47.115Z,13.60
2018-11-06T07:02:47.154Z,13.80
2018-11-06T07:03:47.191Z,15.80
2018-11-06T07:04:47.227Z,12.70
2018-11-06T07:05:47.267Z,12.20
2018-11-06T07:06:47.304Z,13.20
2018-11-06T07:07:47.340Z,12.90
2018-11-06T07:08:47.380Z,11.30
2018-11-06T07:09:47.471Z,10.00
2018-11-06T07:10:47.458Z,12.50
2018-11-06T07:11:47.500Z,12.40
2018-11-06T07:12:47.608Z,13.50
2018-11-06T07:13:47.564Z,13.80
2018-11-06T07:14:47.601Z,16.10
2018-11-06T07:15:47.640Z,16.30
2018-11-06T07:16:48.017Z,15.30
2018-11-06T07:17:47.714Z,12.60
2018-11-06T07:18:47.828Z,13.40
2018-11-06T07:19:47.791Z,14.10
2018-11-06T07:20:47.833Z,14.00
2018-11-06T07:21:47.863Z,14.20
2018-11-06T07:22:47.899Z,12.40
2018-11-06T07:23:47.939Z,11.90
2018-11-06T07:24:47.974Z,14.50
2018-11-06T07:25:48.012Z,13.80
2018-11-06T07:26:48.310Z,14.60
2018-11-06T07:27:48.084Z,13.70
2018-11-06T07:28:48.165Z,13.80
2018-11-06T07:29:48.171Z,14.40
2018-11-06T07:30:48.216Z,13.80
2018-11-06T07:31:48.235Z,14.50
2018-11-06T07:32:48.271Z,15.70
2018-11-06T07:33:48.324Z,18.20
2018-11-06T07:34:48.425Z,14.80
2018-11-06T07:35:48.552Z,14.70
2018-11-06T07:36:48.424Z,14.80
2018-11-06T07:37:48.461Z,13.00
2018-11-06T07:38:48.498Z,13.60
2018-11-06T07:39:48.545Z,12.30
2018-11-06T07:40:48.595Z,13.60
2018-11-06T07:41:48.612Z,12.40
2018-11-06T07:42:48.659Z,14.90
2018-11-06T07:43:48.683Z,10.80
2018-11-06T07:44:48.723Z,11.70
2018-11-06T07:45:48.766Z,13.50
2018-11-06T07:46:48.798Z,13.30
2018-11-06T07:47:48.831Z,12.10
2018-11-06T07:48:48.880Z,11.20
2018-11-06T07:49:48.960Z,12.10
2018-11-06T07:50:48.954Z,12.30
2018-11-06T07:51:48.985Z,11.00
2018-11-06T07:52:49.032Z,10.40
2018-11-06T07:53:49.057Z,10.90
2018-11-06T07:54:49.095Z,20.30
2018-11-06T07:55:49.405Z,14.70
2018-11-06T07:56:49.177Z,12.60
2018-11-06T07:57:49.256Z,11.10
2018-11-06T07:58:49.248Z,13.30
2018-11-06T07:59:49.282Z,13.10
2018-11-06T08:00:49.318Z,12.00
2018-11-06T08:01:49.355Z,12.70
2018-11-06T08:02:49.397Z,13.10
2018-11-06T08:03:49.443Z,11.40
2018-11-06T08:04:49.470Z,10.50
2018-11-06T08:05:49.508Z,11.30
2018-11-06T08:06:49.545Z,11.40
2018-11-06T08:07:49.581Z,11.30
2018-11-06T08:08:49.619Z,11.10
2018-11-06T08:09:49.727Z,10.70
2018-11-06T08:10:49.702Z,10.80
2018-11-06T08:11:49.734Z,11.10
2018-11-06T08:12:49.769Z,12.30
2018-11-06T08:13:49.809Z,11.40
2018-11-06T08:14:49.898Z,10.90
2018-11-06T08:15:49.890Z,10.70
2018-11-06T08:16:49.918Z,10.10
2018-11-06T08:17:49.975Z,9.70
2018-11-06T08:18:49.995Z,9.80
2018-11-06T08:19:50.032Z,9.40
2018-11-06T08:20:50.077Z,9.50
2018-11-06T08:21:50.109Z,8.80
2018-11-06T08:22:50.146Z,9.50
2018-11-06T08:23:50.324Z,10.20
2018-11-06T08:24:50.222Z,9.60
2018-11-06T08:25:50.827Z,10.90
2018-11-06T08:26:50.296Z,10.50
2018-11-06T08:27:50.442Z,10.70
2018-11-06T08:28:50.374Z,10.60
2018-11-06T08:29:50.421Z,10.70
2018-11-06T08:30:50.657Z,10.80
2018-11-06T08:31:50.836Z,10.40
2018-11-06T08:32:50.841Z,11.10
2018-11-06T08:33:50.562Z,10.40
2018-11-06T08:34:50.599Z,10.70
2018-11-06T08:35:50.637Z,10.70
2018-11-06T08:36:50.726Z,10.60
2018-11-06T08:37:50.716Z,11.20
2018-11-06T08:38:50.756Z,11.00
2018-11-06T08:39:50.788Z,9.50
2018-11-06T08:40:50.825Z,9.90
2018-11-06T08:41:50.864Z,10.50
2018-11-06T08:42:50.900Z,10.30
2018-11-06T08:43:50.950Z,9.90
2018-11-06T08:44:50.977Z,9.50
2018-11-06T08:45:51.018Z,12.20
2018-11-06T08:46:51.052Z,9.90
2018-11-06T08:47:51.093Z,10.10
2018-11-06T08:48:51.129Z,9.70
2018-11-06T08:49:51.166Z,10.00
2018-11-06T08:50:51.209Z,9.30
2018-11-06T08:51:51.251Z,10.10
2018-11-06T08:52:51.285Z,10.80
2018-11-06T08:53:51.319Z,9.70
2018-11-06T08:54:51.361Z,9.00
2018-11-06T08:55:51.397Z,8.20
2018-11-06T08:56:51.432Z,7.80
2018-11-06T08:57:51.469Z,8.70
2018-11-06T08:58:51.508Z,9.60
2018-11-06T08:59:51.553Z,9.00
2018-11-06T09:00:51.753Z,8.50
2018-11-06T09:01:51.623Z,8.20
2018-11-06T09:02:51.661Z,7.60
2018-11-06T09:03:51.781Z,7.60
2018-11-06T09:04:51.743Z,8.20
2018-11-06T09:05:51.780Z,8.50
2018-11-06T09:06:51.814Z,9.50
2018-11-06T09:07:51.850Z,9.10
2018-11-06T09:08:51.897Z,8.50
2018-11-06T09:09:51.926Z,9.30
2018-11-06T09:10:51.964Z,9.10
2018-11-06T09:11:52.053Z,8.80
2018-11-06T09:12:52.043Z,8.30
2018-11-06T09:13:52.087Z,8.20
2018-11-06T09:14:52.120Z,8.20
2018-11-06T09:15:52.160Z,8.40
2018-11-06T09:16:52.200Z,7.90
2018-11-06T09:17:52.232Z,8.40
2018-11-06T09:18:52.270Z,9.00
2018-11-06T09:19:52.308Z,8.50
2018-11-06T09:20:52.353Z,8.60
2018-11-06T09:21:52.385Z,8.90
2018-11-06T09:22:52.425Z,8.60
2018-11-06T09:23:52.463Z,8.90
2018-11-06T09:24:52.509Z,8.70
2018-11-06T09:25:52.557Z,8.80
2018-11-06T09:26:52.579Z,8.70
2018-11-06T09:27:52.617Z,9.60
2018-11-06T09:28:52.658Z,10.90
2018-11-06T09:29:52.696Z,10.10
2018-11-06T09:30:52.805Z,9.40
2018-11-06T09:31:52.771Z,9.50
2018-11-06T09:32:52.822Z,9.70
2018-11-06T09:33:52.849Z,10.60
2018-11-06T09:34:52.895Z,10.20
2018-11-06T09:35:52.929Z,10.20
2018-11-06T09:36:52.964Z,10.10
2018-11-06T09:37:53.003Z,9.80
2018-11-06T09:38:53.042Z,10.20
2018-11-06T09:39:53.095Z,10.50
2018-11-06T09:40:53.119Z,11.00
2018-11-06T09:41:53.155Z,10.90
2018-11-06T09:42:53.198Z,11.20
2018-11-06T09:43:53.240Z,11.60
2018-11-06T09:44:53.284Z,11.40
2018-11-06T09:45:53.315Z,11.40
2018-11-06T09:46:53.389Z,10.90
2018-11-06T09:47:53.394Z,10.20
2018-11-06T09:48:53.426Z,11.20
2018-11-06T09:49:53.471Z,10.60
2018-11-06T09:50:53.506Z,12.00
2018-11-06T09:51:53.585Z,12.20
2018-11-06T09:52:53.585Z,11.40
2018-11-06T09:53:53.631Z,11.10
2018-11-06T09:54:53.725Z,12.40
2018-11-06T09:55:53.704Z,11.40
2018-11-06T09:56:53.755Z,11.10
2018-11-06T09:57:53.783Z,11.20
2018-11-06T09:58:53.819Z,10.70
2018-11-06T09:59:53.878Z,11.60
2018-11-06T10:00:53.899Z,11.10
2018-11-06T10:01:53.936Z,10.30
2018-11-06T10:02:53.981Z,11.00
2018-11-06T10:03:54.014Z,11.30
2018-11-06T10:04:54.052Z,10.30
2018-11-06T10:05:54.094Z,10.80
2018-11-06T10:06:54.468Z,12.30
2018-11-06T10:07:54.236Z,12.10
2018-11-06T10:08:54.209Z,12.60
2018-11-06T10:09:54.250Z,12.90
2018-11-06T10:10:54.287Z,15.30
2018-11-06T10:11:54.327Z,17.10
2018-11-06T10:12:54.365Z,15.40
2018-11-06T10:13:54.411Z,13.90
2018-11-06T10:14:54.444Z,14.30
2018-11-06T10:15:54.484Z,13.70
2018-11-06T10:16:54.531Z,14.60
2018-11-06T10:17:54.573Z,14.30
2018-11-06T10:18:54.601Z,15.60
2018-11-06T10:19:54.642Z,16.90
2018-11-06T10:20:54.680Z,15.30
2018-11-06T10:21:54.734Z,14.60
2018-11-06T10:22:54.761Z,13.40
2018-11-06T10:23:54.802Z,13.30
2018-11-06T10:24:54.838Z,11.40
2018-11-06T10:25:54.877Z,11.30
2018-11-06T10:26:54.919Z,11.60
2018-11-06T10:27:54.958Z,11.60
2018-11-06T10:28:54.998Z,11.70
2018-11-06T10:29:55.037Z,11.80
2018-11-06T10:30:55.127Z,12.00
2018-11-06T10:31:55.127Z,12.30
2018-11-06T10:32:55.157Z,12.50
2018-11-06T10:33:55.196Z,12.40
2018-11-06T10:34:55.233Z,13.30
2018-11-06T10:35:55.444Z,14.00
2018-11-06T10:36:55.309Z,14.10
2018-11-06T10:37:55.381Z,14.00
2018-11-06T10:38:55.388Z,13.70
2018-11-06T10:39:55.431Z,14.30
2018-11-06T10:40:55.470Z,13.40
2018-11-06T10:41:55.512Z,13.90
2018-11-06T10:42:55.557Z,15.00
2018-11-06T10:43:55.592Z,14.60
2018-11-06T10:44:55.633Z,14.50
2018-11-06T10:45:55.740Z,14.60
2018-11-06T10:46:55.714Z,14.50
2018-11-06T10:47:55.747Z,14.50
2018-11-06T10:48:55.785Z,14.60
2018-11-06T10:49:55.844Z,15.10
2018-11-06T10:50:55.872Z,14.20
2018-11-06T10:51:56.044Z,14.00
2018-11-06T10:52:55.970Z,14.70
2018-11-06T10:53:55.986Z,14.90
2018-11-06T10:54:56.028Z,15.00
2018-11-06T10:55:56.068Z,15.40
2018-11-06T10:56:56.105Z,15.40
2018-11-06T10:57:56.151Z,15.60
2018-11-06T10:58:56.195Z,15.30
2018-11-06T10:59:56.227Z,16.00
2018-11-06T11:00:56.265Z,15.80
2018-11-06T11:01:56.305Z,15.30
2018-11-06T11:02:56.347Z,14.80
2018-11-06T11:03:56.408Z,15.60
2018-11-06T11:04:56.435Z,15.40
2018-11-06T11:05:56.467Z,15.30
2018-11-06T11:06:56.511Z,15.60
2018-11-06T11:07:56.547Z,15.70
2018-11-06T11:08:56.600Z,15.80
2018-11-06T11:09:56.627Z,16.20
2018-11-06T11:10:56.665Z,16.20
2018-11-06T11:11:56.707Z,15.40
2018-11-06T11:12:56.748Z,16.60
2018-11-06T11:13:56.788Z,16.30
2018-11-06T11:14:56.832Z,16.10
2018-11-06T11:15:56.870Z,16.50
2018-11-06T11:16:56.911Z,16.90
2018-11-06T11:17:56.953Z,17.00
2018-11-06T11:18:56.990Z,16.90
2018-11-06T11:19:57.081Z,17.90
2018-11-06T11:20:57.077Z,18.10
2018-11-06T11:21:57.212Z,17.20
2018-11-06T11:22:57.151Z,18.30
2018-11-06T11:23:57.194Z,17.70
2018-11-06T11:24:57.232Z,17.50
2018-11-06T11:25:57.273Z,19.80
2018-11-06T11:26:57.318Z,19.30
2018-11-06T11:27:57.354Z,17.80
2018-11-06T11:28:57.398Z,18.20
2018-11-06T11:29:57.433Z,16.60
2018-11-06T11:30:57.490Z,20.30
2018-11-06T11:31:57.523Z,22.80
2018-11-06T11:32:57.559Z,18.90
2018-11-06T11:33:57.677Z,26.10
2018-11-06T11:34:57.643Z,17.80
2018-11-06T11:35:57.723Z,18.00
2018-11-06T11:36:57.719Z,18.00
2018-11-06T11:37:57.763Z,18.10
2018-11-06T11:38:57.800Z,21.30
2018-11-06T11:39:57.842Z,16.70
2018-11-06T11:40:57.894Z,14.40
2018-11-06T11:41:57.933Z,16.00
2018-11-06T11:42:57.965Z,16.20
2018-11-06T11:43:58.038Z,15.40
2018-11-06T11:44:58.046Z,13.80
2018-11-06T11:45:58.151Z,14.00
2018-11-06T11:46:58.132Z,15.30
2018-11-06T11:47:58.172Z,16.40
2018-11-06T11:48:58.210Z,14.60
2018-11-06T11:49:58.265Z,15.20
2018-11-06T11:50:58.294Z,16.90
2018-11-06T11:51:58.336Z,16.80
2018-11-06T11:52:58.380Z,16.90
2018-11-06T11:53:58.416Z,16.90
2018-11-06T11:54:58.460Z,17.00
2018-11-06T11:55:58.501Z,17.10
2018-11-06T11:56:58.551Z,16.90
2018-11-06T11:57:58.582Z,16.60
2018-11-06T11:58:58.625Z,16.80
2018-11-06T11:59:58.727Z,16.60
2018-11-06T12:00:58.716Z,16.40
2018-11-06T12:01:58.795Z,17.10
2018-11-06T12:02:58.800Z,17.20
2018-11-06T12:03:58.840Z,15.20
2018-11-06T12:04:58.875Z,15.40
2018-11-06T12:05:58.938Z,15.40
2018-11-06T12:06:59.179Z,15.90
2018-11-06T12:07:58.998Z,17.50
2018-11-06T12:08:59.040Z,18.60
2018-11-06T12:09:59.082Z,17.50
2018-11-06T12:10:59.128Z,16.90
2018-11-06T12:11:59.171Z,18.60
2018-11-06T12:12:59.206Z,15.70
2018-11-06T12:13:59.253Z,17.00
2018-11-06T12:14:59.297Z,16.70
2018-11-06T12:15:59.336Z,16.40
2018-11-06T12:16:59.383Z,16.90
2018-11-06T12:17:59.462Z,16.60
2018-11-06T12:18:59.461Z,16.90
2018-11-06T12:19:59.502Z,16.80
2018-11-06T12:20:59.549Z,20.80
2018-11-06T12:21:59.582Z,17.80
2018-11-06T12:22:59.627Z,17.50
2018-11-06T12:23:59.686Z,17.30
2018-11-06T12:24:59.894Z,17.30
2018-11-06T12:25:59.751Z,16.60
2018-11-06T12:26:59.792Z,16.40
2018-11-06T12:27:59.849Z,16.40
2018-11-06T12:28:59.882Z,16.70
2018-11-06T12:29:59.929Z,16.20
2018-11-06T12:30:59.962Z,16.60
2018-11-06T12:32:00.020Z,16.10
2018-11-06T12:33:00.057Z,16.40
2018-11-06T12:34:00.090Z,16.00
2018-11-06T12:35:00.135Z,16.10
2018-11-06T12:36:00.180Z,15.40
2018-11-06T12:37:00.329Z,14.80
2018-11-06T12:38:00.269Z,15.40
2018-11-06T12:39:00.299Z,14.70
2018-11-06T12:40:00.340Z,14.80
2018-11-06T12:41:00.383Z,15.30
2018-11-06T12:42:00.429Z,15.20
2018-11-06T12:43:00.491Z,14.80
2018-11-06T12:44:00.520Z,14.40
2018-11-06T12:45:00.553Z,14.80
2018-11-06T12:46:00.596Z,14.20
2018-11-06T12:47:00.637Z,14.70
2018-11-06T12:48:00.682Z,13.80
2018-11-06T12:49:00.724Z,14.00
2018-11-06T12:50:00.766Z,13.80
2018-11-06T12:51:00.811Z,14.20
2018-11-06T12:52:00.852Z,13.60
2018-11-06T12:53:00.905Z,14.00
2018-11-06T12:54:00.945Z,14.20
2018-11-06T12:55:00.987Z,13.90